createdAt,value
2019-03-04T00:01:39.358Z,11.40
2019-03-04T00:04:06.860Z,11.40
2019-03-04T00:06:34.111Z,11.40
2019-03-04T00:09:01.333Z,11.40
2019-03-04T00:11:28.580Z,11.50
2019-03-04T00:13:55.888Z,11.50
2019-03-04T00:16:23.145Z,11.50
2019-03-04T00:18:50.364Z,11.60
2019-03-04T00:21:17.658Z,11.80
2019-03-04T00:23:45.160Z,11.80
2019-03-04T00:26:12.404Z,11.90
2019-03-04T00:28:39.992Z,11.90
2019-03-04T00:31:07.228Z,11.80
2019-03-04T00:33:34.816Z,11.90
2019-03-04T00:36:02.428Z,11.90
2019-03-04T00:38:30.048Z,11.90
2019-03-04T00:40:57.274Z,11.90
2019-03-04T00:43:24.501Z,11.90
2019-03-04T00:45:52.088Z,11.90
2019-03-04T00:48:19.313Z,11.80
2019-03-04T00:50:46.901Z,11.80
2019-03-04T00:53:14.120Z,11.80
2019-03-04T00:55:41.368Z,11.80
2019-03-04T00:58:08.620Z,11.90
2019-03-04T01:00:36.193Z,11.90
2019-03-04T01:03:04.020Z,11.70
2019-03-04T01:05:31.264Z,11.60
2019-03-04T01:07:58.492Z,11.40
2019-03-04T01:10:26.040Z,11.50
2019-03-04T01:12:53.287Z,11.50
2019-03-04T01:15:22.483Z,11.40
2019-03-04T01:17:49.973Z,11.50
2019-03-04T01:20:17.377Z,11.60
2019-03-04T01:22:44.606Z,11.60
2019-03-04T01:25:13.497Z,11.40
2019-03-04T01:27:40.724Z,11.40
2019-03-04T01:30:11.381Z,11.30
2019-03-04T01:32:38.680Z,11.30
2019-03-04T01:35:06.316Z,11.10
2019-03-04T01:37:33.540Z,11.00
2019-03-04T01:40:00.768Z,10.80
2019-03-04T01:42:28.003Z,10.70
2019-03-04T01:44:55.222Z,10.50
2019-03-04T01:47:22.443Z,10.70
2019-03-04T01:49:49.664Z,10.60
2019-03-04T01:52:16.888Z,10.50
2019-03-04T01:54:44.436Z,10.40
2019-03-04T01:57:11.696Z,10.30
2019-03-04T01:59:39.007Z,10.20
2019-03-04T02:02:06.228Z,9.90
2019-03-04T02:04:33.956Z,9.70
2019-03-04T02:07:01.514Z,9.60
2019-03-04T02:09:28.736Z,9.50
2019-03-04T02:11:55.956Z,9.40
2019-03-04T02:14:23.075Z,9.40
2019-03-04T02:16:50.302Z,9.40
2019-03-04T02:19:17.524Z,9.30
2019-03-04T02:21:44.753Z,9.30
2019-03-04T02:24:20.988Z,9.30
2019-03-04T02:26:48.862Z,9.30
2019-03-04T02:29:16.088Z,9.20
2019-03-04T02:31:43.308Z,9.30
2019-03-04T02:34:10.894Z,9.30
2019-03-04T02:36:38.204Z,9.20
2019-03-04T02:39:06.135Z,9.20
2019-03-04T02:41:33.685Z,9.10
2019-03-04T02:44:00.905Z,9.10
2019-03-04T02:46:28.123Z,9.00
2019-03-04T02:48:55.344Z,9.00
2019-03-04T02:51:22.900Z,9.10
2019-03-04T02:53:50.116Z,9.10
2019-03-04T02:56:17.345Z,8.90
2019-03-04T02:58:44.861Z,8.80
2019-03-04T03:01:12.704Z,8.70
2019-03-04T03:03:40.296Z,8.70
2019-03-04T03:06:07.629Z,8.80
2019-03-04T03:08:34.852Z,8.90
2019-03-04T03:11:02.066Z,8.90
2019-03-04T03:13:29.298Z,8.90
2019-03-04T03:15:56.534Z,8.90
2019-03-04T03:18:24.235Z,9.10
2019-03-04T03:20:51.753Z,9.20
2019-03-04T03:23:18.981Z,9.30
2019-03-04T03:25:46.310Z,9.30
2019-03-04T03:28:14.362Z,9.40
2019-03-04T03:30:41.916Z,9.40
2019-03-04T03:33:09.218Z,9.40
2019-03-04T03:35:36.441Z,9.40
2019-03-04T03:38:03.661Z,9.30
2019-03-04T03:40:30.888Z,9.30
2019-03-04T03:42:58.115Z,9.30
2019-03-04T03:45:25.344Z,9.30
2019-03-04T03:47:52.561Z,9.30
2019-03-04T03:50:19.787Z,9.20
2019-03-04T03:52:47.023Z,9.20
2019-03-04T03:55:14.566Z,9.30
2019-03-04T03:57:42.111Z,9.40
2019-03-04T04:00:12.742Z,9.40
2019-03-04T04:02:39.969Z,9.40
2019-03-04T04:05:07.513Z,9.40
2019-03-04T04:07:34.741Z,9.40
2019-03-04T04:10:01.981Z,9.40
2019-03-04T04:12:29.312Z,9.30
2019-03-04T04:14:56.617Z,9.30
2019-03-04T04:17:23.845Z,9.20
2019-03-04T04:19:52.995Z,9.20
2019-03-04T04:22:20.288Z,9.30
2019-03-04T04:24:47.602Z,9.50
2019-03-04T04:27:14.956Z,9.60
2019-03-04T04:29:42.253Z,9.60
2019-03-04T04:32:09.478Z,9.70
2019-03-04T04:34:36.731Z,9.70
2019-03-04T04:37:04.037Z,9.60
2019-03-04T04:39:31.261Z,9.60
2019-03-04T04:41:58.496Z,9.70
2019-03-04T04:44:26.008Z,9.70
2019-03-04T04:46:57.408Z,9.80
2019-03-04T04:49:32.380Z,9.90
2019-03-04T04:51:59.939Z,10.10
2019-03-04T04:54:27.500Z,10.10
2019-03-04T04:56:54.636Z,10.10
2019-03-04T04:59:21.864Z,10.20
2019-03-04T05:01:49.080Z,10.20
2019-03-04T05:04:16.638Z,10.30
2019-03-04T05:06:44.170Z,10.20
2019-03-04T05:09:11.649Z,10.20
2019-03-04T05:11:38.875Z,10.20
2019-03-04T05:14:06.098Z,10.20
2019-03-04T05:16:33.321Z,10.10
2019-03-04T05:19:00.840Z,10.20
2019-03-04T05:21:28.401Z,10.20
2019-03-04T05:23:55.667Z,10.30
2019-03-04T05:26:23.252Z,10.30
2019-03-04T05:28:50.585Z,10.30
2019-03-04T05:31:17.818Z,10.30
2019-03-04T05:33:45.060Z,10.40
2019-03-04T05:36:12.516Z,10.30
2019-03-04T05:38:39.765Z,10.30
2019-03-04T05:41:06.989Z,10.40
2019-03-04T05:43:34.232Z,10.50
2019-03-04T05:46:01.729Z,10.50
2019-03-04T05:48:31.856Z,10.50
2019-03-04T05:50:59.416Z,10.50
2019-03-04T05:53:26.968Z,10.60
2019-03-04T05:55:54.557Z,10.50
2019-03-04T05:58:22.188Z,10.50
2019-03-04T06:01:23.735Z,10.30
2019-03-04T06:03:53.760Z,10.10
2019-03-04T06:06:39.307Z,9.70
2019-03-04T06:09:08.896Z,9.40
2019-03-04T06:11:36.133Z,9.30
2019-03-04T06:14:03.614Z,9.40
2019-03-04T06:16:30.835Z,9.30
2019-03-04T06:18:58.377Z,9.20
2019-03-04T06:21:25.606Z,9.10
2019-03-04T06:23:52.832Z,9.10
2019-03-04T06:26:20.056Z,9.10
2019-03-04T06:28:47.573Z,9.10
2019-03-04T06:31:14.801Z,9.10
2019-03-04T06:33:42.397Z,9.30
2019-03-04T06:36:09.621Z,9.50
2019-03-04T06:38:36.842Z,9.60
2019-03-04T06:41:04.069Z,9.50
2019-03-04T06:43:31.604Z,9.60
2019-03-04T06:45:59.194Z,9.60
2019-03-04T06:48:26.744Z,9.70
2019-03-04T06:50:54.248Z,9.80
2019-03-04T06:53:51.285Z,9.80
2019-03-04T06:56:43.221Z,10.00
2019-03-04T06:59:35.732Z,10.20
2019-03-04T07:02:08.402Z,10.20
2019-03-04T07:05:07.657Z,10.10
2019-03-04T07:07:35.246Z,10.00
2019-03-04T07:10:02.836Z,10.00
2019-03-04T07:12:30.079Z,10.00
2019-03-04T07:14:57.636Z,10.10
2019-03-04T07:17:24.945Z,10.20
2019-03-04T07:20:04.978Z,10.20
2019-03-04T07:22:32.209Z,10.30
2019-03-04T07:24:59.450Z,10.40
2019-03-04T07:27:26.664Z,10.40
2019-03-04T07:29:53.893Z,10.40
2019-03-04T07:32:21.501Z,10.40
2019-03-04T07:34:49.078Z,10.60
2019-03-04T07:37:16.704Z,10.60
2019-03-04T07:39:43.944Z,10.70
2019-03-04T07:42:11.168Z,10.70
2019-03-04T07:44:39.075Z,10.70
2019-03-04T07:47:06.304Z,10.70
2019-03-04T07:49:33.554Z,10.60
2019-03-04T07:52:01.160Z,10.70
2019-03-04T07:54:29.007Z,10.80
2019-03-04T07:56:56.830Z,10.80
2019-03-04T07:59:24.090Z,10.90
2019-03-04T08:01:51.304Z,10.90
2019-03-04T08:04:18.548Z,10.90
2019-03-04T08:06:45.676Z,10.90
2019-03-04T08:09:20.792Z,10.90
2019-03-04T08:12:41.833Z,10.90
2019-03-04T08:15:10.001Z,10.90
2019-03-04T08:17:37.573Z,10.80
2019-03-04T08:20:06.805Z,10.80
2019-03-04T08:22:34.063Z,10.70
2019-03-04T08:25:01.380Z,10.30
2019-03-04T08:27:28.731Z,10.10
2019-03-04T08:29:55.953Z,10.00
2019-03-04T08:32:23.209Z,10.10
2019-03-04T08:34:50.427Z,10.10
2019-03-04T08:37:17.648Z,9.90
2019-03-04T08:39:44.893Z,9.90
2019-03-04T08:42:12.112Z,9.90
2019-03-04T08:44:39.440Z,9.80
2019-03-04T08:47:06.671Z,9.60
2019-03-04T08:49:33.984Z,9.40
2019-03-04T08:52:01.236Z,9.40
2019-03-04T08:54:28.469Z,9.40
2019-03-04T08:57:03.647Z,9.00
2019-03-04T08:59:24.830Z,8.80
2019-03-04T09:01:52.713Z,8.90
2019-03-04T09:04:20.016Z,9.10
2019-03-04T09:06:47.608Z,9.40
2019-03-04T09:09:15.192Z,9.60
2019-03-04T09:11:42.552Z,9.90
2019-03-04T09:14:09.868Z,10.10
2019-03-04T09:16:37.092Z,10.40
2019-03-04T09:19:04.708Z,10.40
2019-03-04T09:21:31.969Z,10.30
2019-03-04T09:23:59.224Z,10.20
2019-03-04T09:26:26.457Z,10.10
2019-03-04T09:28:53.797Z,10.20
2019-03-04T09:31:21.028Z,10.20
2019-03-04T09:33:48.624Z,10.30
2019-03-04T09:36:15.863Z,10.40
2019-03-04T09:38:43.745Z,10.50
2019-03-04T09:41:10.987Z,10.90
2019-03-04T09:43:38.257Z,11.30
2019-03-04T09:46:05.492Z,11.50
2019-03-04T09:48:33.048Z,11.60
2019-03-04T09:51:00.929Z,11.90
2019-03-04T09:53:28.205Z,11.70
2019-03-04T09:55:56.112Z,11.70
2019-03-04T09:58:23.368Z,11.50
2019-03-04T10:01:33.008Z,11.70
2019-03-04T10:04:38.058Z,11.70
2019-03-04T10:07:52.478Z,11.30
2019-03-04T10:11:08.289Z,11.30
2019-03-04T10:13:50.530Z,12.00
2019-03-04T10:16:48.937Z,13.20
2019-03-04T10:19:32.463Z,13.00
2019-03-04T10:22:09.056Z,13.10
2019-03-04T10:24:51.589Z,12.80
2019-03-04T10:27:49.892Z,13.10
2019-03-04T10:30:46.835Z,13.50
2019-03-04T10:33:44.699Z,13.80
2019-03-04T10:36:39.861Z,14.00
2019-03-04T10:39:31.420Z,14.60
2019-03-04T10:42:52.600Z,13.40
2019-03-04T10:45:30.809Z,12.70
2019-03-04T10:47:58.725Z,11.60
2019-03-04T10:50:25.854Z,11.00
2019-03-04T10:52:53.085Z,10.90
2019-03-04T10:55:20.576Z,10.70
2019-03-04T10:57:47.800Z,10.30
2019-03-04T11:00:16.372Z,10.30
2019-03-04T11:02:43.595Z,10.60
2019-03-04T11:05:10.816Z,11.10
2019-03-04T11:07:38.040Z,11.10
2019-03-04T11:10:05.288Z,10.80
2019-03-04T11:12:32.520Z,10.40
2019-03-04T11:15:00.029Z,9.80
2019-03-04T11:17:27.248Z,10.40
2019-03-04T11:19:54.499Z,10.70
2019-03-04T11:22:21.801Z,10.70
2019-03-04T11:24:49.028Z,10.20
2019-03-04T11:27:16.661Z,9.70
2019-03-04T11:29:43.895Z,9.60
2019-03-04T11:32:11.514Z,9.40
2019-03-04T11:34:38.769Z,9.10
2019-03-04T11:37:06.308Z,8.60
2019-03-04T11:39:46.973Z,8.40
2019-03-04T11:42:14.648Z,8.30
2019-03-04T11:44:44.796Z,8.20
2019-03-04T11:47:21.956Z,8.60
2019-03-04T11:49:53.435Z,8.60
2019-03-04T11:52:21.168Z,8.60
2019-03-04T11:54:48.720Z,9.00
2019-03-04T11:57:16.281Z,11.10
2019-03-04T11:59:43.508Z,12.50
2019-03-04T12:02:17.266Z,13.50
2019-03-04T12:04:44.797Z,14.30
2019-03-04T12:07:12.352Z,14.60
2019-03-04T12:09:39.802Z,14.40
2019-03-04T12:12:07.032Z,12.90
2019-03-04T12:14:34.335Z,12.30
2019-03-04T12:17:01.647Z,11.30
2019-03-04T12:19:28.921Z,10.60
2019-03-04T12:21:56.684Z,9.80
2019-03-04T12:24:24.240Z,8.80
2019-03-04T12:26:51.821Z,8.20
2019-03-04T12:29:19.044Z,7.90
2019-03-04T12:31:58.321Z,7.80
2019-03-04T12:34:25.742Z,7.80
2019-03-04T12:36:52.972Z,7.90
2019-03-04T12:39:20.205Z,8.30
2019-03-04T12:41:49.623Z,8.60
2019-03-04T12:44:16.904Z,8.80
2019-03-04T12:46:44.132Z,9.10
2019-03-04T12:49:11.362Z,10.00
2019-03-04T12:51:38.584Z,10.10
2019-03-04T12:54:06.103Z,10.00
2019-03-04T12:56:33.361Z,10.10
2019-03-04T12:59:00.587Z,9.90
2019-03-04T13:01:27.808Z,9.70
2019-03-04T13:03:55.073Z,9.20
2019-03-04T13:06:22.563Z,8.90
2019-03-04T13:08:49.789Z,8.60
2019-03-04T13:11:17.016Z,8.40
2019-03-04T13:13:44.452Z,8.30
2019-03-04T13:16:11.992Z,8.30
2019-03-04T13:18:39.225Z,8.30
2019-03-04T13:21:06.814Z,8.20
2019-03-04T13:23:34.128Z,8.10
2019-03-04T13:26:01.362Z,7.90
2019-03-04T13:28:28.708Z,7.90
2019-03-04T13:30:55.956Z,8.00
2019-03-04T13:33:23.077Z,7.90
2019-03-04T13:35:50.312Z,7.90
2019-03-04T13:38:17.540Z,8.00
2019-03-04T13:40:47.392Z,8.00
2019-03-04T13:43:14.634Z,8.10
2019-03-04T13:45:42.188Z,8.10
2019-03-04T13:48:09.766Z,8.10
2019-03-04T13:50:37.312Z,8.30
2019-03-04T13:53:05.168Z,8.50
2019-03-04T13:55:32.716Z,8.70
2019-03-04T13:57:59.945Z,9.00
2019-03-04T14:00:27.274Z,9.10
2019-03-04T14:02:54.499Z,9.00
2019-03-04T14:05:21.764Z,9.40
2019-03-04T14:07:48.994Z,9.50
2019-03-04T14:10:17.476Z,9.50
2019-03-04T14:12:44.726Z,9.20
2019-03-04T14:15:15.309Z,9.00
2019-03-04T14:17:42.648Z,8.80
2019-03-04T14:20:10.368Z,8.40
2019-03-04T14:22:40.494Z,8.10
2019-03-04T14:25:08.109Z,7.80
2019-03-04T14:27:35.364Z,7.50
2019-03-04T14:30:03.472Z,7.40
2019-03-04T14:32:31.236Z,7.40
2019-03-04T14:34:58.800Z,7.70
2019-03-04T14:37:25.956Z,7.80
2019-03-04T14:39:53.268Z,7.80
2019-03-04T14:42:20.541Z,7.90
2019-03-04T14:44:47.764Z,8.10
2019-03-04T14:47:15.016Z,8.00
2019-03-04T14:49:44.997Z,7.80
2019-03-04T14:52:11.472Z,7.60
2019-03-04T14:54:38.976Z,7.50
2019-03-04T14:57:06.224Z,7.10
2019-03-04T14:59:33.792Z,6.70
2019-03-04T15:02:01.166Z,6.60
2019-03-04T15:04:28.397Z,6.30
2019-03-04T15:06:55.648Z,6.30
2019-03-04T15:09:22.872Z,6.20
2019-03-04T15:11:50.384Z,6.20
2019-03-04T15:14:17.693Z,6.20
2019-03-04T15:16:44.912Z,6.30
2019-03-04T15:19:12.139Z,6.30
2019-03-04T15:21:39.648Z,6.20
2019-03-04T15:24:06.896Z,6.10
2019-03-04T15:26:43.684Z,6.30
2019-03-04T15:29:03.410Z,6.30
2019-03-04T15:31:30.627Z,6.40
2019-03-04T15:33:57.876Z,6.50
2019-03-04T15:36:25.099Z,6.30
2019-03-04T15:38:52.364Z,6.30
2019-03-04T15:41:19.675Z,6.30
2019-03-04T15:43:46.934Z,6.20
2019-03-04T15:46:14.835Z,6.30
2019-03-04T15:48:42.187Z,6.30
2019-03-04T15:51:09.551Z,6.40
2019-03-04T15:53:36.814Z,6.40
2019-03-04T15:56:04.042Z,6.40
2019-03-04T15:58:31.372Z,6.20
2019-03-04T16:00:58.596Z,6.20
2019-03-04T16:03:26.109Z,6.10
2019-03-04T16:05:53.328Z,6.00
2019-03-04T16:08:20.584Z,5.90
2019-03-04T16:10:47.805Z,5.80
2019-03-04T16:13:15.058Z,5.80
2019-03-04T16:15:43.341Z,5.70
2019-03-04T16:18:11.048Z,5.80
2019-03-04T16:20:38.271Z,5.80
2019-03-04T16:23:05.556Z,5.90
2019-03-04T16:25:32.884Z,5.90
2019-03-04T16:28:12.692Z,5.90
2019-03-04T16:30:40.136Z,5.90
2019-03-04T16:33:07.392Z,6.00
2019-03-04T16:35:34.617Z,6.00
2019-03-04T16:38:01.878Z,5.90
2019-03-04T16:40:29.096Z,5.90
2019-03-04T16:42:56.356Z,5.90
2019-03-04T16:45:23.591Z,5.80
2019-03-04T16:47:50.914Z,5.80
2019-03-04T16:50:18.160Z,5.70
2019-03-04T16:52:45.520Z,5.70
2019-03-04T16:55:14.061Z,5.60
2019-03-04T16:57:41.616Z,5.60
2019-03-04T17:00:11.988Z,5.60
2019-03-04T17:02:39.219Z,5.70
2019-03-04T17:05:08.309Z,5.60
2019-03-04T17:07:35.532Z,5.60
2019-03-04T17:10:03.722Z,5.60
2019-03-04T17:12:31.040Z,5.60
2019-03-04T17:14:58.289Z,5.60
2019-03-04T17:17:25.516Z,5.50
2019-03-04T17:19:52.768Z,5.50
2019-03-04T17:22:19.989Z,5.60
2019-03-04T17:24:48.152Z,5.50
2019-03-04T17:27:15.713Z,5.30
2019-03-04T17:29:43.272Z,5.30
2019-03-04T17:32:10.508Z,5.30
2019-03-04T17:34:37.860Z,5.30
2019-03-04T17:37:05.116Z,5.30
2019-03-04T17:39:33.202Z,5.20
2019-03-04T17:42:00.440Z,5.20
2019-03-04T17:44:27.700Z,5.20
2019-03-04T17:46:54.838Z,5.20
2019-03-04T17:49:22.193Z,5.30
2019-03-04T17:51:49.428Z,5.30
2019-03-04T17:54:17.015Z,5.40
2019-03-04T17:56:44.250Z,5.50
2019-03-04T17:59:11.520Z,5.40
2019-03-04T18:01:38.765Z,5.30
2019-03-04T18:04:06.061Z,5.10
2019-03-04T18:06:33.703Z,5.10
2019-03-04T18:09:00.978Z,5.20
2019-03-04T18:11:28.255Z,5.10
2019-03-04T18:13:55.881Z,5.10
2019-03-04T18:16:23.515Z,5.00
2019-03-04T18:18:51.671Z,5.00
2019-03-04T18:21:18.912Z,5.10
2019-03-04T18:23:46.156Z,5.10
2019-03-04T18:26:17.081Z,5.20
2019-03-04T18:29:05.152Z,5.20
2019-03-04T18:31:44.355Z,5.20
2019-03-04T18:34:55.561Z,5.20
2019-03-04T18:38:14.461Z,5.00
2019-03-04T18:40:59.019Z,5.00
2019-03-04T18:44:03.465Z,4.90
2019-03-04T18:47:07.736Z,4.80
2019-03-04T18:49:35.304Z,4.80
2019-03-04T18:52:02.860Z,4.80
2019-03-04T18:54:30.439Z,4.90
2019-03-04T18:56:57.668Z,4.90
2019-03-04T18:59:24.896Z,5.00
2019-03-04T19:01:52.182Z,5.00
2019-03-04T19:04:19.480Z,5.10
2019-03-04T19:06:46.715Z,5.20
2019-03-04T19:09:13.941Z,5.20
2019-03-04T19:11:41.174Z,5.20
2019-03-04T19:14:08.737Z,5.20
2019-03-04T19:16:35.980Z,5.20
2019-03-04T19:19:03.241Z,5.20
2019-03-04T19:21:30.474Z,5.20
2019-03-04T19:23:58.056Z,5.30
2019-03-04T19:26:25.613Z,5.30
2019-03-04T19:28:53.248Z,5.40
2019-03-04T19:31:20.381Z,5.40
2019-03-04T19:33:47.702Z,5.30
2019-03-04T19:36:14.928Z,5.30
2019-03-04T19:38:42.169Z,5.30
2019-03-04T19:41:09.407Z,5.10
2019-03-04T19:43:36.984Z,5.10
2019-03-04T19:46:04.293Z,5.10
2019-03-04T19:48:31.810Z,5.30
2019-03-04T19:50:59.380Z,5.30
2019-03-04T19:53:26.617Z,5.20
2019-03-04T19:55:53.748Z,5.20
2019-03-04T19:58:21.227Z,5.30
2019-03-04T20:00:48.545Z,5.30
2019-03-04T20:03:15.774Z,5.40
2019-03-04T20:05:43.822Z,5.40
2019-03-04T20:08:11.779Z,5.40
2019-03-04T20:10:39.337Z,5.50
2019-03-04T20:13:06.568Z,5.50
2019-03-04T20:15:33.877Z,5.50
2019-03-04T20:18:01.380Z,5.60
2019-03-04T20:20:28.628Z,5.60
2019-03-04T20:22:55.857Z,5.60
2019-03-04T20:25:23.497Z,5.70
2019-03-04T20:27:51.301Z,5.70
2019-03-04T20:30:19.276Z,5.70
2019-03-04T20:32:46.840Z,5.70
2019-03-04T20:35:14.306Z,5.70
2019-03-04T20:37:44.421Z,5.70
2019-03-04T20:40:11.644Z,5.80
2019-03-04T20:42:38.878Z,5.70
2019-03-04T20:45:07.661Z,5.70
2019-03-04T20:47:35.160Z,5.70
2019-03-04T20:50:02.772Z,5.60
2019-03-04T20:52:29.995Z,5.50
2019-03-04T20:54:57.217Z,5.50
2019-03-04T20:57:24.548Z,5.50
2019-03-04T20:59:51.788Z,5.50
2019-03-04T21:02:19.008Z,5.40
2019-03-04T21:04:46.233Z,5.40
2019-03-04T21:07:13.820Z,5.50
2019-03-04T21:09:41.056Z,5.50
2019-03-04T21:12:08.575Z,5.40
2019-03-04T21:14:36.299Z,5.40
2019-03-04T21:17:03.609Z,5.50
2019-03-04T21:19:30.936Z,5.50
2019-03-04T21:21:58.404Z,5.50
2019-03-04T21:24:25.644Z,5.50
2019-03-04T21:26:53.260Z,5.50
2019-03-04T21:30:01.019Z,5.50
2019-03-04T21:33:14.781Z,5.60
2019-03-04T21:36:30.468Z,5.50
2019-03-04T21:38:58.646Z,5.60
2019-03-04T21:41:43.293Z,5.60
2019-03-04T21:44:48.128Z,5.70
2019-03-04T21:47:22.876Z,5.60
2019-03-04T21:49:52.427Z,5.50
2019-03-04T21:52:46.739Z,5.50
2019-03-04T21:55:19.588Z,5.40
2019-03-04T21:57:52.295Z,5.40
2019-03-04T22:00:25.383Z,5.40
2019-03-04T22:03:22.660Z,5.40
2019-03-04T22:05:50.833Z,5.30
2019-03-04T22:08:18.191Z,5.30
2019-03-04T22:10:46.056Z,5.40
2019-03-04T22:13:13.837Z,5.30
2019-03-04T22:15:41.072Z,5.20
2019-03-04T22:18:08.836Z,5.00
2019-03-04T22:20:36.174Z,5.00
2019-03-04T22:23:03.735Z,5.00
2019-03-04T22:25:30.965Z,4.90
2019-03-04T22:27:58.518Z,5.00
2019-03-04T22:30:25.908Z,5.10
2019-03-04T22:32:53.500Z,5.10
2019-03-04T22:35:20.758Z,5.10
2019-03-04T22:37:48.425Z,5.10
2019-03-04T22:40:17.023Z,5.10
2019-03-04T22:42:44.550Z,5.20
2019-03-04T22:45:14.136Z,5.30
2019-03-04T22:47:41.693Z,5.30
2019-03-04T22:50:09.836Z,5.30
2019-03-04T22:52:37.253Z,5.30
2019-03-04T22:55:07.705Z,5.30
2019-03-04T22:57:35.464Z,5.30
2019-03-04T23:00:04.485Z,5.40
2019-03-04T23:02:31.723Z,5.30
2019-03-04T23:05:10.988Z,5.40
2019-03-04T23:07:43.832Z,5.40
2019-03-04T23:10:29.004Z,5.40
2019-03-04T23:13:30.372Z,5.40
2019-03-04T23:15:59.240Z,5.40
2019-03-04T23:18:27.148Z,5.40
2019-03-04T23:20:54.408Z,5.30
2019-03-04T23:23:21.653Z,5.30
2019-03-04T23:25:48.875Z,5.20
2019-03-04T23:28:16.108Z,5.20
2019-03-04T23:30:43.344Z,5.10
2019-03-04T23:33:10.868Z,5.10
2019-03-04T23:35:38.109Z,5.10
2019-03-04T23:38:05.340Z,5.10
2019-03-04T23:40:32.476Z,5.00
2019-03-04T23:42:59.716Z,5.10
2019-03-04T23:45:27.094Z,5.10
2019-03-04T23:47:54.685Z,5.10
2019-03-04T23:50:22.213Z,5.00
2019-03-04T23:52:49.804Z,5.00
2019-03-04T23:55:17.424Z,5.00
2019-03-04T23:57:45.025Z,5.10
